sensor_id;sensor_type;location;lat;lon;timestamp;temperature;humidity
27819;DHT22;15192;44.854;10.046;2023-09-18T00:02:13;21.70;99.90
27819;DHT22;15192;44.854;10.046;2023-09-18T00:04:41;21.60;99.90
27819;DHT22;15192;44.854;10.046;2023-09-18T00:07:09;21.60;99.90
27819;DHT22;15192;44.854;10.046;2023-09-18T00:09:37;21.60;99.90
27819;DHT22;15192;44.854;10.046;2023-09-18T00:12:05;21.50;99.90
27819;DHT22;15192;44.854;10.046;2023-09-18T00:14:33;21.50;99.90
27819;DHT22;15192;44.854;10.046;2023-09-18T00:17:02;21.50;99.90
27819;DHT22;15192;44.854;10.046;2023-09-18T00:19:30;21.40;99.90
27819;DHT22;15192;44.854;10.046;2023-09-18T00:21:59;21.40;99.90
27819;DHT22;15192;44.854;10.046;2023-09-18T00:24:30;21.40;99.90
27819;DHT22;15192;44.854;10.046;2023-09-18T00:26:58;21.40;99.90
27819;DHT22;15192;44.854;10.046;2023-09-18T00:29:26;21.30;99.90
27819;DHT22;15192;44.854;10.046;2023-09-18T00:31:54;21.30;99.90
27819;DHT22;15192;44.854;10.046;2023-09-18T00:34:22;21.30;99.90
27819;DHT22;15192;44.854;10.046;2023-09-18T00:36:50;21.30;99.90
27819;DHT22;15192;44.854;10.046;2023-09-18T00:39:18;21.30;99.90
27819;DHT22;15192;44.854;10.046;2023-09-18T00:41:47;21.40;99.90
27819;DHT22;15192;44.854;10.046;2023-09-18T00:44:16;21.40;99.90
27819;DHT22;15192;44.854;10.046;2023-09-18T00:46:44;21.30;99.90
27819;DHT22;15192;44.854;10.046;2023-09-18T00:49:12;21.30;99.90
27819;DHT22;15192;44.854;10.046;2023-09-18T00:51:40;21.30;99.90
27819;DHT22;15192;44.854;10.046;2023-09-18T00:54:09;21.30;99.90
27819;DHT22;15192;44.854;10.046;2023-09-18T00:56:37;21.20;99.90
27819;DHT22;15192;44.854;10.046;2023-09-18T00:59:05;21.20;99.90
27819;DHT22;15192;44.854;10.046;2023-09-18T01:01:34;21.20;99.90
27819;DHT22;15192;44.854;10.046;2023-09-18T01:04:02;21.20;99.90
27819;DHT22;15192;44.854;10.046;2023-09-18T01:06:30;22.90;99.90
27819;DHT22;15192;44.854;10.046;2023-09-18T01:08:58;21.30;99.90
27819;DHT22;15192;44.854;10.046;2023-09-18T01:11:31;21.30;99.90
27819;DHT22;15192;44.854;10.046;2023-09-18T01:14:04;21.30;99.90
27819;DHT22;15192;44.854;10.046;2023-09-18T01:16:36;21.30;99.90
27819;DHT22;15192;44.854;10.046;2023-09-18T01:19:02;21.40;99.90
27819;DHT22;15192;44.854;10.046;2023-09-18T01:21:30;21.40;99.90
27819;DHT22;15192;44.854;10.046;2023-09-18T01:23:58;21.40;99.90
27819;DHT22;15192;44.854;10.046;2023-09-18T01:26:26;21.40;99.90
27819;DHT22;15192;44.854;10.046;2023-09-18T01:28:54;21.30;99.90
27819;DHT22;15192;44.854;10.046;2023-09-18T01:31:22;21.30;99.90
27819;DHT22;15192;44.854;10.046;2023-09-18T01:33:50;21.30;99.90
27819;DHT22;15192;44.854;10.046;2023-09-18T01:36:19;21.30;99.90
27819;DHT22;15192;44.854;10.046;2023-09-18T01:38:47;21.30;99.90
27819;DHT22;15192;44.854;10.046;2023-09-18T01:41:17;21.20;99.90
27819;DHT22;15192;44.854;10.046;2023-09-18T01:43:45;21.20;99.90
27819;DHT22;15192;44.854;10.046;2023-09-18T01:46:13;21.20;99.90
27819;DHT22;15192;44.854;10.046;2023-09-18T01:48:47;21.20;99.90
27819;DHT22;15192;44.854;10.046;2023-09-18T01:51:15;21.20;99.90
27819;DHT22;15192;44.854;10.046;2023-09-18T01:53:44;21.20;99.90
27819;DHT22;15192;44.854;10.046;2023-09-18T01:56:12;21.20;99.90
27819;DHT22;15192;44.854;10.046;2023-09-18T01:58:40;21.20;99.90
27819;DHT22;15192;44.854;10.046;2023-09-18T02:01:08;21.20;99.90
27819;DHT22;15192;44.854;10.046;2023-09-18T02:03:36;21.20;99.90
27819;DHT22;15192;44.854;10.046;2023-09-18T02:06:06;21.20;99.90
27819;DHT22;15192;44.854;10.046;2023-09-18T02:08:34;21.20;99.90
27819;DHT22;15192;44.854;10.046;2023-09-18T02:11:02;21.20;99.90
27819;DHT22;15192;44.854;10.046;2023-09-18T02:13:31;21.20;99.90
27819;DHT22;15192;44.854;10.046;2023-09-18T02:15:59;21.30;99.90
27819;DHT22;15192;44.854;10.046;2023-09-18T02:18:27;19.90;99.90
27819;DHT22;15192;44.854;10.046;2023-09-18T02:20:55;21.20;99.90
27819;DHT22;15192;44.854;10.046;2023-09-18T02:23:24;21.20;99.90
27819;DHT22;15192;44.854;10.046;2023-09-18T02:25:55;21.20;99.90
27819;DHT22;15192;44.854;10.046;2023-09-18T02:28:24;21.20;99.90
27819;DHT22;15192;44.854;10.046;2023-09-18T02:30:52;21.20;99.90
27819;DHT22;15192;44.854;10.046;2023-09-18T02:33:20;21.20;99.90
27819;DHT22;15192;44.854;10.046;2023-09-18T02:35:48;21.20;99.90
27819;DHT22;15192;44.854;10.046;2023-09-18T02:38:16;21.10;99.90
27819;DHT22;15192;44.854;10.046;2023-09-18T02:40:44;21.10;99.90
27819;DHT22;15192;44.854;10.046;2023-09-18T02:43:12;21.10;99.90
27819;DHT22;15192;44.854;10.046;2023-09-18T02:45:40;21.10;99.90
27819;DHT22;15192;44.854;10.046;2023-09-18T02:48:09;21.10;99.90
27819;DHT22;15192;44.854;10.046;2023-09-18T02:50:36;21.00;99.90
27819;DHT22;15192;44.854;10.046;2023-09-18T02:53:05;21.00;99.90
27819;DHT22;15192;44.854;10.046;2023-09-18T02:55:34;21.00;99.90
27819;DHT22;15192;44.854;10.046;2023-09-18T02:58:02;21.00;99.90
27819;DHT22;15192;44.854;10.046;2023-09-18T03:00:30;20.90;99.90
27819;DHT22;15192;44.854;10.046;2023-09-18T03:02:58;20.90;99.90
27819;DHT22;15192;44.854;10.046;2023-09-18T03:05:27;20.90;99.90
27819;DHT22;15192;44.854;10.046;2023-09-18T03:07:55;20.90;99.90
27819;DHT22;15192;44.854;10.046;2023-09-18T03:10:23;20.90;99.90
27819;DHT22;15192;44.854;10.046;2023-09-18T03:12:52;21.00;99.90
27819;DHT22;15192;44.854;10.046;2023-09-18T03:15:20;21.10;99.90
27819;DHT22;15192;44.854;10.046;2023-09-18T03:17:50;21.10;99.90
27819;DHT22;15192;44.854;10.046;2023-09-18T03:20:18;21.10;99.90
27819;DHT22;15192;44.854;10.046;2023-09-18T03:22:46;21.10;99.90
27819;DHT22;15192;44.854;10.046;2023-09-18T03:25:14;21.10;99.90
27819;DHT22;15192;44.854;10.046;2023-09-18T03:27:42;21.10;99.90
27819;DHT22;15192;44.854;10.046;2023-09-18T03:30:10;21.10;99.90
27819;DHT22;15192;44.854;10.046;2023-09-18T03:32:43;21.10;99.90
27819;DHT22;15192;44.854;10.046;2023-09-18T03:35:11;21.00;99.90
27819;DHT22;15192;44.854;10.046;2023-09-18T03:37:52;21.10;99.90
27819;DHT22;15192;44.854;10.046;2023-09-18T03:40:19;21.00;99.90
27819;DHT22;15192;44.854;10.046;2023-09-18T03:42:47;21.10;99.90
27819;DHT22;15192;44.854;10.046;2023-09-18T03:45:16;21.10;99.90
27819;DHT22;15192;44.854;10.046;2023-09-18T03:47:46;21.10;99.90
27819;DHT22;15192;44.854;10.046;2023-09-18T03:50:16;21.10;99.90
27819;DHT22;15192;44.854;10.046;2023-09-18T03:52:44;21.00;99.90
27819;DHT22;15192;44.854;10.046;2023-09-18T03:55:12;21.00;99.90
27819;DHT22;15192;44.854;10.046;2023-09-18T03:57:41;21.00;99.90
27819;DHT22;15192;44.854;10.046;2023-09-18T04:00:10;21.00;99.90
27819;DHT22;15192;44.854;10.046;2023-09-18T04:02:38;21.00;99.90
27819;DHT22;15192;44.854;10.046;2023-09-18T04:05:06;21.00;99.90
27819;DHT22;15192;44.854;10.046;2023-09-18T04:07:34;21.00;99.90
27819;DHT22;15192;44.854;10.046;2023-09-18T04:10:02;21.00;99.90
27819;DHT22;15192;44.854;10.046;2023-09-18T04:12:30;20.90;99.90
27819;DHT22;15192;44.854;10.046;2023-09-18T04:14:58;20.90;99.90
27819;DHT22;15192;44.854;10.046;2023-09-18T04:17:27;20.90;99.90
27819;DHT22;15192;44.854;10.046;2023-09-18T04:19:54;20.90;99.90
27819;DHT22;15192;44.854;10.046;2023-09-18T04:22:23;20.90;99.90
27819;DHT22;15192;44.854;10.046;2023-09-18T04:24:51;20.90;99.90
27819;DHT22;15192;44.854;10.046;2023-09-18T04:27:19;20.90;99.90
27819;DHT22;15192;44.854;10.046;2023-09-18T04:29:47;20.80;99.90
27819;DHT22;15192;44.854;10.046;2023-09-18T04:32:15;20.80;99.90
27819;DHT22;15192;44.854;10.046;2023-09-18T04:34:43;20.80;99.90
27819;DHT22;15192;44.854;10.046;2023-09-18T04:37:13;20.80;99.90
27819;DHT22;15192;44.854;10.046;2023-09-18T04:39:41;20.80;99.90
27819;DHT22;15192;44.854;10.046;2023-09-18T04:42:09;20.80;99.90
27819;DHT22;15192;44.854;10.046;2023-09-18T04:44:38;20.80;99.90
27819;DHT22;15192;44.854;10.046;2023-09-18T04:47:06;20.80;99.90
27819;DHT22;15192;44.854;10.046;2023-09-18T04:49:34;20.80;99.90
27819;DHT22;15192;44.854;10.046;2023-09-18T04:52:02;20.90;99.90
27819;DHT22;15192;44.854;10.046;2023-09-18T04:54:32;20.90;99.90
27819;DHT22;15192;44.854;10.046;2023-09-18T04:57:00;20.90;99.90
27819;DHT22;15192;44.854;10.046;2023-09-18T04:59:28;20.90;99.90
27819;DHT22;15192;44.854;10.046;2023-09-18T05:01:56;20.90;99.90
27819;DHT22;15192;44.854;10.046;2023-09-18T05:04:24;20.90;99.90
27819;DHT22;15192;44.854;10.046;2023-09-18T05:06:52;20.80;99.90
27819;DHT22;15192;44.854;10.046;2023-09-18T05:09:20;20.90;99.90
27819;DHT22;15192;44.854;10.046;2023-09-18T05:11:48;20.80;99.90
27819;DHT22;15192;44.854;10.046;2023-09-18T05:14:16;20.80;99.90
27819;DHT22;15192;44.854;10.046;2023-09-18T05:16:44;20.80;99.90
27819;DHT22;15192;44.854;10.046;2023-09-18T05:19:12;20.80;99.90
27819;DHT22;15192;44.854;10.046;2023-09-18T05:21:40;20.80;99.90
27819;DHT22;15192;44.854;10.046;2023-09-18T05:24:09;20.80;99.90
27819;DHT22;15192;44.854;10.046;2023-09-18T05:26:37;20.80;99.90
27819;DHT22;15192;44.854;10.046;2023-09-18T05:29:05;20.80;99.90
27819;DHT22;15192;44.854;10.046;2023-09-18T05:31:33;20.80;99.90
27819;DHT22;15192;44.854;10.046;2023-09-18T05:34:06;20.80;99.90
27819;DHT22;15192;44.854;10.046;2023-09-18T05:36:34;20.90;99.90
27819;DHT22;15192;44.854;10.046;2023-09-18T05:39:03;20.90;99.90
27819;DHT22;15192;44.854;10.046;2023-09-18T05:41:31;21.00;99.90
27819;DHT22;15192;44.854;10.046;2023-09-18T05:43:59;21.10;99.90
27819;DHT22;15192;44.854;10.046;2023-09-18T05:46:29;21.20;99.90
27819;DHT22;15192;44.854;10.046;2023-09-18T05:48:57;21.20;99.90
27819;DHT22;15192;44.854;10.046;2023-09-18T05:51:27;21.20;99.90
27819;DHT22;15192;44.854;10.046;2023-09-18T05:53:55;21.30;99.90
27819;DHT22;15192;44.854;10.046;2023-09-18T05:56:23;21.40;99.90
27819;DHT22;15192;44.854;10.046;2023-09-18T05:58:51;21.40;99.90
27819;DHT22;15192;44.854;10.046;2023-09-18T06:01:19;21.50;99.90
27819;DHT22;15192;44.854;10.046;2023-09-18T06:03:47;21.50;99.90
27819;DHT22;15192;44.854;10.046;2023-09-18T06:06:15;21.60;99.90
27819;DHT22;15192;44.854;10.046;2023-09-18T06:08:43;21.50;99.90
27819;DHT22;15192;44.854;10.046;2023-09-18T06:11:11;21.50;99.90
27819;DHT22;15192;44.854;10.046;2023-09-18T06:13:40;21.50;99.90
27819;DHT22;15192;44.854;10.046;2023-09-18T06:16:08;21.50;99.90
27819;DHT22;15192;44.854;10.046;2023-09-18T06:18:36;21.60;99.90
27819;DHT22;15192;44.854;10.046;2023-09-18T06:21:05;21.60;99.90
27819;DHT22;15192;44.854;10.046;2023-09-18T06:23:33;21.60;99.90
27819;DHT22;15192;44.854;10.046;2023-09-18T06:26:01;21.60;99.90
27819;DHT22;15192;44.854;10.046;2023-09-18T06:28:31;21.50;99.90
27819;DHT22;15192;44.854;10.046;2023-09-18T06:30:59;21.50;99.90
27819;DHT22;15192;44.854;10.046;2023-09-18T06:33:27;21.60;99.90
27819;DHT22;15192;44.854;10.046;2023-09-18T06:36:11;21.60;99.90
27819;DHT22;15192;44.854;10.046;2023-09-18T06:38:35;21.60;99.90
27819;DHT22;15192;44.854;10.046;2023-09-18T06:41:05;21.60;99.90
27819;DHT22;15192;44.854;10.046;2023-09-18T06:43:33;21.60;99.90
27819;DHT22;15192;44.854;10.046;2023-09-18T06:46:01;21.70;99.90
27819;DHT22;15192;44.854;10.046;2023-09-18T06:48:29;21.70;99.90
27819;DHT22;15192;44.854;10.046;2023-09-18T06:51:00;21.60;99.90
27819;DHT22;15192;44.854;10.046;2023-09-18T06:53:28;21.60;99.90
27819;DHT22;15192;44.854;10.046;2023-09-18T06:55:56;21.70;99.90
27819;DHT22;15192;44.854;10.046;2023-09-18T06:58:24;21.70;99.90
27819;DHT22;15192;44.854;10.046;2023-09-18T07:00:52;21.70;99.90
27819;DHT22;15192;44.854;10.046;2023-09-18T07:03:20;21.60;99.90
27819;DHT22;15192;44.854;10.046;2023-09-18T07:05:50;21.60;99.90
27819;DHT22;15192;44.854;10.046;2023-09-18T07:08:18;21.70;99.90
27819;DHT22;15192;44.854;10.046;2023-09-18T07:10:48;21.80;99.90
27819;DHT22;15192;44.854;10.046;2023-09-18T07:13:17;21.80;99.90
27819;DHT22;15192;44.854;10.046;2023-09-18T07:15:45;21.90;99.90
27819;DHT22;15192;44.854;10.046;2023-09-18T07:18:14;21.90;99.90
27819;DHT22;15192;44.854;10.046;2023-09-18T07:20:45;22.00;99.90
27819;DHT22;15192;44.854;10.046;2023-09-18T07:23:13;22.00;99.90
27819;DHT22;15192;44.854;10.046;2023-09-18T07:25:41;22.10;99.90
27819;DHT22;15192;44.854;10.046;2023-09-18T07:28:10;22.10;99.90
27819;DHT22;15192;44.854;10.046;2023-09-18T07:30:40;22.20;99.90
27819;DHT22;15192;44.854;10.046;2023-09-18T07:33:08;22.20;99.90
27819;DHT22;15192;44.854;10.046;2023-09-18T07:35:36;22.30;99.90
27819;DHT22;15192;44.854;10.046;2023-09-18T07:38:04;22.30;99.90
27819;DHT22;15192;44.854;10.046;2023-09-18T07:40:32;22.20;99.90
27819;DHT22;15192;44.854;10.046;2023-09-18T07:43:00;22.20;99.90
27819;DHT22;15192;44.854;10.046;2023-09-18T07:45:28;22.30;99.90
27819;DHT22;15192;44.854;10.046;2023-09-18T07:47:56;22.40;99.90
27819;DHT22;15192;44.854;10.046;2023-09-18T07:50:24;22.40;99.90
27819;DHT22;15192;44.854;10.046;2023-09-18T07:52:52;22.50;99.90
27819;DHT22;15192;44.854;10.046;2023-09-18T07:55:20;22.60;99.90
27819;DHT22;15192;44.854;10.046;2023-09-18T07:57:48;22.60;99.90
27819;DHT22;15192;44.854;10.046;2023-09-18T08:00:18;22.70;99.90
27819;DHT22;15192;44.854;10.046;2023-09-18T08:02:48;22.80;99.90
27819;DHT22;15192;44.854;10.046;2023-09-18T08:05:17;22.80;99.90
27819;DHT22;15192;44.854;10.046;2023-09-18T08:07:45;22.80;99.90
27819;DHT22;15192;44.854;10.046;2023-09-18T08:10:14;22.90;99.90
27819;DHT22;15192;44.854;10.046;2023-09-18T08:12:43;22.90;99.90
27819;DHT22;15192;44.854;10.046;2023-09-18T08:15:11;23.00;99.90
27819;DHT22;15192;44.854;10.046;2023-09-18T08:17:39;23.10;99.90
27819;DHT22;15192;44.854;10.046;2023-09-18T08:20:08;23.20;99.90
27819;DHT22;15192;44.854;10.046;2023-09-18T08:22:37;23.40;99.90
27819;DHT22;15192;44.854;10.046;2023-09-18T08:25:06;23.50;99.90
27819;DHT22;15192;44.854;10.046;2023-09-18T08:27:38;23.50;99.90
27819;DHT22;15192;44.854;10.046;2023-09-18T08:30:11;23.70;99.90
27819;DHT22;15192;44.854;10.046;2023-09-18T08:32:40;23.70;99.90
27819;DHT22;15192;44.854;10.046;2023-09-18T08:35:08;23.80;99.90
27819;DHT22;15192;44.854;10.046;2023-09-18T08:37:36;23.90;99.90
27819;DHT22;15192;44.854;10.046;2023-09-18T08:40:05;24.00;99.90
27819;DHT22;15192;44.854;10.046;2023-09-18T08:42:35;24.30;99.90
27819;DHT22;15192;44.854;10.046;2023-09-18T08:45:04;24.40;99.90
27819;DHT22;15192;44.854;10.046;2023-09-18T08:47:34;24.60;99.90
27819;DHT22;15192;44.854;10.046;2023-09-18T08:50:03;24.70;99.90
27819;DHT22;15192;44.854;10.046;2023-09-18T08:52:31;24.90;99.90
27819;DHT22;15192;44.854;10.046;2023-09-18T08:54:59;25.00;99.90
27819;DHT22;15192;44.854;10.046;2023-09-18T08:57:28;25.10;99.90
27819;DHT22;15192;44.854;10.046;2023-09-18T08:59:57;25.10;99.90
27819;DHT22;15192;44.854;10.046;2023-09-18T09:02:27;25.30;99.90
27819;DHT22;15192;44.854;10.046;2023-09-18T09:04:55;25.30;99.90
27819;DHT22;15192;44.854;10.046;2023-09-18T09:07:23;25.40;99.90
27819;DHT22;15192;44.854;10.046;2023-09-18T09:09:51;25.40;99.90
27819;DHT22;15192;44.854;10.046;2023-09-18T09:15:07;25.30;99.90
27819;DHT22;15192;44.854;10.046;2023-09-18T09:17:35;25.30;99.90
27819;DHT22;15192;44.854;10.046;2023-09-18T09:20:10;25.30;99.90
27819;DHT22;15192;44.854;10.046;2023-09-18T09:22:41;25.30;99.90
27819;DHT22;15192;44.854;10.046;2023-09-18T09:25:22;25.30;99.90
27819;DHT22;15192;44.854;10.046;2023-09-18T09:27:51;25.30;99.90
27819;DHT22;15192;44.854;10.046;2023-09-18T09:30:27;25.20;99.90
27819;DHT22;15192;44.854;10.046;2023-09-18T09:32:56;25.30;99.90
27819;DHT22;15192;44.854;10.046;2023-09-18T09:35:25;25.40;99.90
27819;DHT22;15192;44.854;10.046;2023-09-18T09:37:57;25.50;99.90
27819;DHT22;15192;44.854;10.046;2023-09-18T09:40:26;25.60;99.90
27819;DHT22;15192;44.854;10.046;2023-09-18T09:42:57;25.60;99.90
27819;DHT22;15192;44.854;10.046;2023-09-18T09:45:28;25.60;99.90
27819;DHT22;15192;44.854;10.046;2023-09-18T09:48:03;25.60;99.90
27819;DHT22;15192;44.854;10.046;2023-09-18T09:50:32;25.60;99.90
27819;DHT22;15192;44.854;10.046;2023-09-18T09:53:00;25.60;99.90
27819;DHT22;15192;44.854;10.046;2023-09-18T09:55:33;25.70;99.90
27819;DHT22;15192;44.854;10.046;2023-09-18T09:58:01;25.60;99.90
27819;DHT22;15192;44.854;10.046;2023-09-18T10:03:07;25.60;99.90
27819;DHT22;15192;44.854;10.046;2023-09-18T10:05:36;25.70;99.90
27819;DHT22;15192;44.854;10.046;2023-09-18T10:08:10;25.80;99.90
27819;DHT22;15192;44.854;10.046;2023-09-18T10:10:38;25.90;99.90
27819;DHT22;15192;44.854;10.046;2023-09-18T10:13:08;25.90;99.90
27819;DHT22;15192;44.854;10.046;2023-09-18T10:15:36;26.00;99.90
27819;DHT22;15192;44.854;10.046;2023-09-18T10:18:07;25.90;99.90
27819;DHT22;15192;44.854;10.046;2023-09-18T10:20:40;25.90;99.90
27819;DHT22;15192;44.854;10.046;2023-09-18T10:23:05;25.90;99.90
27819;DHT22;15192;44.854;10.046;2023-09-18T10:25:46;26.10;99.90
27819;DHT22;15192;44.854;10.046;2023-09-18T10:28:21;26.40;99.90
27819;DHT22;15192;44.854;10.046;2023-09-18T10:30:50;26.60;99.90
27819;DHT22;15192;44.854;10.046;2023-09-18T10:33:19;26.80;99.90
27819;DHT22;15192;44.854;10.046;2023-09-18T10:35:47;27.00;99.90
27819;DHT22;15192;44.854;10.046;2023-09-18T10:38:15;27.20;99.90
27819;DHT22;15192;44.854;10.046;2023-09-18T10:40:44;27.40;99.90
27819;DHT22;15192;44.854;10.046;2023-09-18T10:43:15;27.70;99.90
27819;DHT22;15192;44.854;10.046;2023-09-18T10:45:44;27.90;99.90
27819;DHT22;15192;44.854;10.046;2023-09-18T10:48:12;28.10;99.90
27819;DHT22;15192;44.854;10.046;2023-09-18T10:50:41;28.10;99.90
27819;DHT22;15192;44.854;10.046;2023-09-18T10:53:10;28.40;99.90
27819;DHT22;15192;44.854;10.046;2023-09-18T10:55:38;28.40;99.90
27819;DHT22;15192;44.854;10.046;2023-09-18T10:58:06;28.50;99.90
27819;DHT22;15192;44.854;10.046;2023-09-18T11:00:34;28.40;99.90
27819;DHT22;15192;44.854;10.046;2023-09-18T11:03:10;28.30;99.90
27819;DHT22;15192;44.854;10.046;2023-09-18T11:05:39;28.50;99.90
27819;DHT22;15192;44.854;10.046;2023-09-18T11:10:58;28.60;99.90
27819;DHT22;15192;44.854;10.046;2023-09-18T11:13:31;28.60;99.90
27819;DHT22;15192;44.854;10.046;2023-09-18T11:16:16;28.60;99.90
27819;DHT22;15192;44.854;10.046;2023-09-18T11:18:47;28.60;99.90
27819;DHT22;15192;44.854;10.046;2023-09-18T11:21:17;28.80;99.90
27819;DHT22;15192;44.854;10.046;2023-09-18T11:23:46;28.80;99.90
27819;DHT22;15192;44.854;10.046;2023-09-18T11:26:15;29.00;99.90
27819;DHT22;15192;44.854;10.046;2023-09-18T11:28:43;29.10;99.90
27819;DHT22;15192;44.854;10.046;2023-09-18T11:31:13;29.30;99.90
27819;DHT22;15192;44.854;10.046;2023-09-18T11:33:46;29.40;99.90
27819;DHT22;15192;44.854;10.046;2023-09-18T11:38:58;29.60;99.90
27819;DHT22;15192;44.854;10.046;2023-09-18T11:41:28;29.70;99.90
27819;DHT22;15192;44.854;10.046;2023-09-18T11:46:45;29.60;99.90
27819;DHT22;15192;44.854;10.046;2023-09-18T11:49:14;29.50;99.90
27819;DHT22;15192;44.854;10.046;2023-09-18T11:51:43;29.40;99.90
27819;DHT22;15192;44.854;10.046;2023-09-18T11:54:13;29.30;99.90
27819;DHT22;15192;44.854;10.046;2023-09-18T11:56:43;29.30;99.90
27819;DHT22;15192;44.854;10.046;2023-09-18T11:59:11;29.20;99.90
27819;DHT22;15192;44.854;10.046;2023-09-18T12:01:40;29.00;99.90
27819;DHT22;15192;44.854;10.046;2023-09-18T12:04:08;28.90;99.90
27819;DHT22;15192;44.854;10.046;2023-09-18T12:06:36;28.90;99.90
27819;DHT22;15192;44.854;10.046;2023-09-18T12:09:04;28.90;99.90
27819;DHT22;15192;44.854;10.046;2023-09-18T12:11:33;28.80;99.90
27819;DHT22;15192;44.854;10.046;2023-09-18T12:14:08;28.60;99.90
27819;DHT22;15192;44.854;10.046;2023-09-18T12:16:37;28.60;99.90
27819;DHT22;15192;44.854;10.046;2023-09-18T12:19:08;28.50;99.90
27819;DHT22;15192;44.854;10.046;2023-09-18T12:21:42;28.50;99.90
27819;DHT22;15192;44.854;10.046;2023-09-18T12:24:14;28.40;99.90
27819;DHT22;15192;44.854;10.046;2023-09-18T12:26:42;28.40;99.90
27819;DHT22;15192;44.854;10.046;2023-09-18T12:29:10;28.30;99.90
27819;DHT22;15192;44.854;10.046;2023-09-18T12:31:38;28.30;99.90
27819;DHT22;15192;44.854;10.046;2023-09-18T12:34:13;28.30;99.90
27819;DHT22;15192;44.854;10.046;2023-09-18T12:36:36;28.30;99.90
27819;DHT22;15192;44.854;10.046;2023-09-18T12:39:04;28.30;99.90
27819;DHT22;15192;44.854;10.046;2023-09-18T12:41:33;28.30;99.90
27819;DHT22;15192;44.854;10.046;2023-09-18T12:44:01;28.30;99.90
27819;DHT22;15192;44.854;10.046;2023-09-18T12:46:31;28.40;99.90
27819;DHT22;15192;44.854;10.046;2023-09-18T12:48:59;28.60;99.90
27819;DHT22;15192;44.854;10.046;2023-09-18T12:51:30;28.50;99.90
27819;DHT22;15192;44.854;10.046;2023-09-18T12:54:01;28.60;99.90
27819;DHT22;15192;44.854;10.046;2023-09-18T12:56:31;28.80;99.90
27819;DHT22;15192;44.854;10.046;2023-09-18T12:58:59;28.80;99.90
27819;DHT22;15192;44.854;10.046;2023-09-18T13:01:27;28.90;99.90
27819;DHT22;15192;44.854;10.046;2023-09-18T13:03:55;28.90;99.90
27819;DHT22;15192;44.854;10.046;2023-09-18T13:06:23;29.00;99.90
27819;DHT22;15192;44.854;10.046;2023-09-18T13:08:52;29.10;99.90
27819;DHT22;15192;44.854;10.046;2023-09-18T13:11:20;29.10;99.90
27819;DHT22;15192;44.854;10.046;2023-09-18T13:13:56;29.20;99.90
27819;DHT22;15192;44.854;10.046;2023-09-18T13:16:17;29.30;99.90
27819;DHT22;15192;44.854;10.046;2023-09-18T13:18:46;29.30;99.90
27819;DHT22;15192;44.854;10.046;2023-09-18T13:21:14;29.40;99.90
27819;DHT22;15192;44.854;10.046;2023-09-18T13:23:42;29.50;99.90
27819;DHT22;15192;44.854;10.046;2023-09-18T13:26:10;29.60;99.90
27819;DHT22;15192;44.854;10.046;2023-09-18T13:28:38;29.50;99.90
27819;DHT22;15192;44.854;10.046;2023-09-18T13:31:07;29.40;99.90
27819;DHT22;15192;44.854;10.046;2023-09-18T13:33:38;29.20;99.90
27819;DHT22;15192;44.854;10.046;2023-09-18T13:36:08;29.10;99.90
27819;DHT22;15192;44.854;10.046;2023-09-18T13:38:36;28.90;99.90
27819;DHT22;15192;44.854;10.046;2023-09-18T13:41:04;28.90;99.90
27819;DHT22;15192;44.854;10.046;2023-09-18T13:43:32;28.80;99.90
27819;DHT22;15192;44.854;10.046;2023-09-18T13:46:02;28.70;99.90
27819;DHT22;15192;44.854;10.046;2023-09-18T13:48:31;28.60;99.90
27819;DHT22;15192;44.854;10.046;2023-09-18T13:51:00;28.50;99.90
27819;DHT22;15192;44.854;10.046;2023-09-18T13:53:29;28.50;99.90
27819;DHT22;15192;44.854;10.046;2023-09-18T13:55:57;28.50;99.90
27819;DHT22;15192;44.854;10.046;2023-09-18T13:58:25;28.60;99.90
27819;DHT22;15192;44.854;10.046;2023-09-18T14:00:53;30.20;99.90
27819;DHT22;15192;44.854;10.046;2023-09-18T14:03:21;28.90;99.90
27819;DHT22;15192;44.854;10.046;2023-09-18T14:05:50;29.10;99.90
27819;DHT22;15192;44.854;10.046;2023-09-18T14:08:18;29.40;99.90
27819;DHT22;15192;44.854;10.046;2023-09-18T14:10:46;29.40;99.90
27819;DHT22;15192;44.854;10.046;2023-09-18T14:13:14;29.40;99.90
27819;DHT22;15192;44.854;10.046;2023-09-18T14:15:42;29.30;99.90
27819;DHT22;15192;44.854;10.046;2023-09-18T14:18:11;29.10;99.90
27819;DHT22;15192;44.854;10.046;2023-09-18T14:20:40;29.00;99.90
27819;DHT22;15192;44.854;10.046;2023-09-18T14:23:08;28.80;99.90
27819;DHT22;15192;44.854;10.046;2023-09-18T14:25:36;28.60;99.90
27819;DHT22;15192;44.854;10.046;2023-09-18T14:28:05;28.50;99.90
27819;DHT22;15192;44.854;10.046;2023-09-18T14:30:33;28.40;99.90
27819;DHT22;15192;44.854;10.046;2023-09-18T14:33:01;28.30;99.90
27819;DHT22;15192;44.854;10.046;2023-09-18T14:35:29;28.30;99.90
27819;DHT22;15192;44.854;10.046;2023-09-18T14:37:57;28.30;99.90
27819;DHT22;15192;44.854;10.046;2023-09-18T14:40:25;28.30;99.90
27819;DHT22;15192;44.854;10.046;2023-09-18T14:42:53;28.20;99.90
27819;DHT22;15192;44.854;10.046;2023-09-18T14:45:21;28.20;99.90
27819;DHT22;15192;44.854;10.046;2023-09-18T14:47:50;28.20;99.90
27819;DHT22;15192;44.854;10.046;2023-09-18T14:50:18;28.00;99.90
27819;DHT22;15192;44.854;10.046;2023-09-18T14:52:48;27.90;99.90
27819;DHT22;15192;44.854;10.046;2023-09-18T14:55:16;27.80;99.90
27819;DHT22;15192;44.854;10.046;2023-09-18T14:57:44;27.70;99.90
27819;DHT22;15192;44.854;10.046;2023-09-18T15:00:12;27.70;99.90
27819;DHT22;15192;44.854;10.046;2023-09-18T15:02:40;27.70;99.90
27819;DHT22;15192;44.854;10.046;2023-09-18T15:05:08;27.80;99.90
27819;DHT22;15192;44.854;10.046;2023-09-18T15:07:38;27.70;99.90
27819;DHT22;15192;44.854;10.046;2023-09-18T15:10:06;27.70;99.90
27819;DHT22;15192;44.854;10.046;2023-09-18T15:12:35;27.60;99.90
27819;DHT22;15192;44.854;10.046;2023-09-18T15:15:03;27.60;99.90
27819;DHT22;15192;44.854;10.046;2023-09-18T15:17:31;27.10;99.90
27819;DHT22;15192;44.854;10.046;2023-09-18T15:19:59;27.50;99.90
27819;DHT22;15192;44.854;10.046;2023-09-18T15:22:27;27.50;99.90
27819;DHT22;15192;44.854;10.046;2023-09-18T15:24:55;27.50;99.90
27819;DHT22;15192;44.854;10.046;2023-09-18T15:27:23;27.60;99.90
27819;DHT22;15192;44.854;10.046;2023-09-18T15:29:51;27.60;99.90
27819;DHT22;15192;44.854;10.046;2023-09-18T15:32:19;27.50;99.90
27819;DHT22;15192;44.854;10.046;2023-09-18T15:34:48;27.60;99.90
27819;DHT22;15192;44.854;10.046;2023-09-18T15:37:16;27.50;99.90
27819;DHT22;15192;44.854;10.046;2023-09-18T15:39:44;27.40;99.90